Hackberry, Arizona
Current Conditions -  °F | °C
As of 10:51 AM on Monday 24 Nov 2014 (Local Time) from KIGM Reporting Station
Clear Clear  
Wind Chill: 52°   Ceiling: Unl
Heat Index: 52°   Visibility: 10mi
Dew Point:   Wind: 8mph
Humidity: 17%   Direction: 20°NNE
Pressure: 30.36"   Gusts: NA
Location:  35.37°N, 113.73°W
Report Text: KIGM 241751Z AUTO 02007KT 10SM CLR 11/M13 A3036 RMK AO2 SLP254 T01111133 10111 21044 51018
Loading
Personal Weather Stations






























Interactive Weather Map New forecast layout! Learn more

10-Day Weather Forecast

Advertisements
Track Severe Weather on mobile